Terminal Aerodrome Forecast
Issued by NWS Greer, SC

Home | Current Version | Previous Version | Graphics & Text | Print | Product List | Glossary On
Versions: 1 2 3 4 5 6 7 8 9 10 11 12 13 14 15 16 17 18 19 20 21 22 23 24 25 26 27 28 29 30 31 32 33 34 35 36 37 38 39 40 41 42 43 44 45 46
000
FTUS42 KGSP 271031 AAD
TAFAVL
TAF AMD
KAVL 271031Z 2711/2806 17005KT P6SM SCT020 BKN035
      TEMPO 2711/2713 4SM BR BKN020
     FM271400 19005KT P6SM BKN030
     FM271600 20008KT P6SM VCSH BKN035 PROB30 2720/2724 4SM -TSRA
      OVC025CB
     FM280000 19004KT P6SM VCSH BKN040=

USA.gov is the U.S. government's official web portal to all federal, state and local government web resources and services.